createdAt,value
2023-02-01T00:02:47.617Z,0
2023-02-01T00:07:47.493Z,0
2023-02-01T00:12:47.473Z,0
2023-02-01T00:17:47.436Z,0
2023-02-01T00:22:47.506Z,0
2023-02-01T00:27:47.463Z,0
2023-02-01T00:32:47.485Z,0
2023-02-01T00:37:47.425Z,0
2023-02-01T00:42:47.487Z,0
2023-02-01T00:47:47.432Z,0
2023-02-01T00:52:47.447Z,0
2023-02-01T00:57:47.430Z,0
2023-02-01T01:02:47.448Z,0
2023-02-01T01:07:47.492Z,0
2023-02-01T01:12:47.409Z,0
2023-02-01T01:17:47.449Z,0
2023-02-01T01:22:47.439Z,0
2023-02-01T01:27:47.454Z,0
2023-02-01T01:32:47.442Z,0
2023-02-01T01:37:47.407Z,0
2023-02-01T01:42:48.470Z,0
2023-02-01T01:47:47.408Z,0
2023-02-01T01:52:47.391Z,0
2023-02-01T01:57:47.389Z,0
2023-02-01T02:02:47.414Z,0
2023-02-01T02:12:47.372Z,0
2023-02-01T02:17:47.386Z,0
2023-02-01T02:22:47.394Z,0
2023-02-01T02:27:47.365Z,0
2023-02-01T02:32:47.365Z,0
2023-02-01T02:37:47.363Z,0
2023-02-01T02:42:47.401Z,0
2023-02-01T02:47:47.392Z,0
2023-02-01T02:52:47.346Z,0
2023-02-01T02:57:47.359Z,0
2023-02-01T03:08:18.475Z,0
2023-02-01T03:12:47.343Z,0
2023-02-01T03:17:47.351Z,0
2023-02-01T03:22:47.338Z,0
2023-02-01T03:27:47.397Z,0
2023-02-01T03:32:47.333Z,0
2023-02-01T03:37:47.371Z,0
2023-02-01T03:42:47.359Z,0
2023-02-01T03:47:47.399Z,0
2023-02-01T03:52:47.342Z,0
2023-02-01T03:57:47.329Z,0
2023-02-01T04:02:47.367Z,0
2023-02-01T04:07:47.427Z,0
2023-02-01T04:12:47.346Z,0
2023-02-01T04:17:47.334Z,0
2023-02-01T04:22:47.314Z,0
2023-02-01T04:27:47.350Z,0
2023-02-01T04:32:47.340Z,0
2023-02-01T04:37:47.289Z,0
2023-02-01T04:42:47.293Z,0
2023-02-01T04:47:47.349Z,0
2023-02-01T04:52:47.301Z,0
2023-02-01T04:57:47.304Z,0
2023-02-01T05:02:47.307Z,0
2023-02-01T05:07:47.342Z,0
2023-02-01T05:12:47.315Z,0
2023-02-01T05:17:47.309Z,0
2023-02-01T05:22:47.292Z,0
2023-02-01T05:27:47.299Z,0
2023-02-01T05:32:47.261Z,0
2023-02-01T05:37:47.294Z,0
2023-02-01T05:42:47.262Z,0
2023-02-01T05:47:47.284Z,0
2023-02-01T05:52:47.265Z,0
2023-02-01T05:57:47.291Z,0
2023-02-01T06:02:47.344Z,0
2023-02-01T06:07:47.270Z,0
2023-02-01T06:12:47.265Z,0
2023-02-01T06:17:47.273Z,0
2023-02-01T06:22:47.251Z,0
2023-02-01T06:27:47.281Z,0
2023-02-01T06:32:47.251Z,0
2023-02-01T06:37:47.243Z,0
2023-02-01T06:42:47.240Z,0
2023-02-01T06:47:47.283Z,0
2023-02-01T06:52:47.266Z,0
2023-02-01T06:57:47.221Z,0
2023-02-01T07:02:47.262Z,0
2023-02-01T07:07:47.262Z,0
2023-02-01T07:12:47.252Z,0
2023-02-01T07:17:47.247Z,0
2023-02-01T07:22:47.219Z,0
2023-02-01T07:27:47.239Z,4
2023-02-01T07:32:47.233Z,9
2023-02-01T07:37:47.179Z,11
2023-02-01T07:42:47.239Z,13
2023-02-01T07:47:47.233Z,17
2023-02-01T07:52:47.204Z,13
2023-02-01T07:57:47.214Z,16
2023-02-01T08:02:47.228Z,12
2023-02-01T08:07:47.233Z,16
2023-02-01T08:12:47.208Z,17
2023-02-01T08:17:47.924Z,27
2023-02-01T08:22:47.194Z,36
2023-02-01T08:27:47.226Z,61
2023-02-01T08:32:47.221Z,53
2023-02-01T08:37:47.192Z,64
2023-02-01T08:42:47.200Z,57
2023-02-01T08:47:47.218Z,104
2023-02-01T08:52:47.205Z,102
2023-02-01T08:57:47.198Z,59
2023-02-01T09:02:47.195Z,55
2023-02-01T09:07:47.270Z,101
2023-02-01T09:12:47.168Z,97
2023-02-01T09:17:47.209Z,118
2023-02-01T09:22:47.191Z,155
2023-02-01T09:27:47.216Z,90
2023-02-01T09:32:47.164Z,185
2023-02-01T09:37:47.167Z,116
2023-02-01T09:42:47.249Z,115
2023-02-01T09:47:47.193Z,118
2023-02-01T09:52:47.151Z,114
2023-02-01T09:57:47.169Z,155
2023-02-01T10:02:47.177Z,132
2023-02-01T10:07:47.209Z,103
2023-02-01T10:12:47.183Z,76
2023-02-01T10:17:47.150Z,109
2023-02-01T10:27:47.166Z,40
2023-02-01T10:32:47.162Z,41
2023-02-01T10:37:47.133Z,52
2023-02-01T10:42:47.184Z,26
2023-02-01T10:47:47.281Z,28
2023-02-01T10:52:47.135Z,25
2023-02-01T10:57:47.150Z,23
2023-02-01T11:02:47.180Z,29
2023-02-01T11:07:47.155Z,36
2023-02-01T11:12:47.148Z,49
2023-02-01T11:17:47.153Z,56
2023-02-01T11:22:47.139Z,72
2023-02-01T11:27:54.573Z,48
2023-02-01T11:32:47.141Z,46
2023-02-01T11:37:47.122Z,42
2023-02-01T11:42:47.105Z,30
2023-02-01T11:47:47.145Z,60
2023-02-01T11:52:47.208Z,47
2023-02-01T11:57:47.119Z,33
2023-02-01T12:02:47.191Z,49
2023-02-01T12:07:47.133Z,40
2023-02-01T12:12:47.131Z,57
2023-02-01T12:17:47.130Z,38
2023-02-01T12:22:47.083Z,36
2023-02-01T12:27:47.157Z,48
2023-02-01T12:32:47.094Z,30
2023-02-01T12:37:47.157Z,43
2023-02-01T12:42:47.124Z,23
2023-02-01T12:47:47.110Z,45
2023-02-01T12:52:47.277Z,37
2023-02-01T12:57:47.139Z,40
2023-02-01T13:02:47.110Z,22
2023-02-01T13:07:47.111Z,21
2023-02-01T13:12:47.100Z,29
2023-02-01T13:17:47.132Z,21
2023-02-01T13:22:47.108Z,19
2023-02-01T13:27:47.154Z,30
2023-02-01T13:32:54.512Z,14
2023-02-01T13:37:47.101Z,17
2023-02-01T13:42:47.067Z,26
2023-02-01T13:47:47.107Z,13
2023-02-01T13:52:47.067Z,26
2023-02-01T13:57:47.057Z,26
2023-02-01T14:02:47.049Z,19
2023-02-01T14:07:47.112Z,17
2023-02-01T14:12:47.053Z,6
2023-02-01T14:17:47.112Z,27
2023-02-01T14:22:47.057Z,120
2023-02-01T14:27:47.087Z,118
2023-02-01T14:32:47.071Z,74
2023-02-01T14:37:47.051Z,158
2023-02-01T14:42:47.035Z,112
2023-02-01T14:47:47.053Z,218
2023-02-01T14:52:47.046Z,190
2023-02-01T14:57:47.023Z,91
2023-02-01T15:02:47.050Z,73
2023-02-01T15:07:47.055Z,39
2023-02-01T15:12:47.045Z,52
2023-02-01T15:17:47.072Z,35
2023-02-01T15:22:47.022Z,13
2023-02-01T15:27:47.042Z,12
2023-02-01T15:32:47.049Z,1
2023-02-01T15:37:47.034Z,0
2023-02-01T15:42:47.053Z,0
2023-02-01T15:47:47.031Z,0
2023-02-01T15:52:47.025Z,0
2023-02-01T15:57:47.029Z,0
2023-02-01T16:02:47.086Z,0
2023-02-01T16:07:47.068Z,0
2023-02-01T16:12:47.733Z,0
2023-02-01T16:17:47.015Z,0
2023-02-01T16:22:47.007Z,0
2023-02-01T16:27:47.026Z,0
2023-02-01T16:32:47.006Z,0
2023-02-01T16:37:47.069Z,0
2023-02-01T16:42:47.018Z,0
2023-02-01T16:47:47.027Z,0
2023-02-01T16:52:47.009Z,0
2023-02-01T16:57:47.022Z,0
2023-02-01T17:02:46.998Z,0
2023-02-01T17:07:47.010Z,0
2023-02-01T17:12:47.004Z,0
2023-02-01T17:17:47.005Z,0
2023-02-01T17:22:46.967Z,0
2023-02-01T17:27:46.981Z,0
2023-02-01T17:32:47.009Z,0
2023-02-01T17:37:46.962Z,0
2023-02-01T17:42:46.959Z,0
2023-02-01T17:47:47.023Z,0
2023-02-01T17:52:47.216Z,0
2023-02-01T17:57:46.944Z,0
2023-02-01T18:02:47.049Z,0
2023-02-01T18:07:46.967Z,0
2023-02-01T18:12:46.944Z,0
2023-02-01T18:17:46.946Z,0
2023-02-01T18:22:46.937Z,0
2023-02-01T18:27:46.983Z,0
2023-02-01T18:32:46.964Z,0
2023-02-01T18:37:46.961Z,0
2023-02-01T18:42:46.936Z,0
2023-02-01T18:47:46.975Z,0
2023-02-01T18:52:46.958Z,0
2023-02-01T18:57:46.944Z,0
2023-02-01T19:02:47.007Z,0
2023-02-01T19:07:46.980Z,0
2023-02-01T19:12:46.968Z,0
2023-02-01T19:17:46.929Z,0
2023-02-01T19:22:46.905Z,0
2023-02-01T19:27:46.958Z,0
2023-02-01T19:32:46.927Z,0
2023-02-01T19:37:46.918Z,0
2023-02-01T19:42:46.896Z,0
2023-02-01T19:47:46.945Z,0
2023-02-01T19:52:46.892Z,0
2023-02-01T19:57:46.893Z,0
2023-02-01T20:02:46.051Z,0
2023-02-01T20:07:46.079Z,0
2023-02-01T20:12:46.047Z,0
2023-02-01T20:17:46.057Z,0
2023-02-01T20:22:46.041Z,0
2023-02-01T20:27:46.928Z,0
2023-02-01T20:32:48.279Z,0
2023-02-01T20:37:48.010Z,0
2023-02-01T20:42:48.034Z,0
2023-02-01T20:47:48.021Z,0
2023-02-01T20:52:48.007Z,0
2023-02-01T20:57:48.022Z,0
2023-02-01T21:02:48.002Z,0
2023-02-01T21:07:48.039Z,0
2023-02-01T21:12:50.203Z,0
2023-02-01T21:17:47.988Z,0
2023-02-01T21:22:47.982Z,0
2023-02-01T21:27:48.014Z,0
2023-02-01T21:32:47.995Z,0
2023-02-01T21:37:47.967Z,0
2023-02-01T21:42:47.981Z,0
2023-02-01T21:47:49.454Z,0
2023-02-01T21:52:47.990Z,0
2023-02-01T21:57:47.954Z,0
2023-02-01T22:02:47.980Z,0
2023-02-01T22:07:48.028Z,0
2023-02-01T22:12:47.969Z,0
2023-02-01T22:17:48.131Z,0
2023-02-01T22:22:47.937Z,0
2023-02-01T22:28:31.450Z,0
2023-02-01T22:32:47.968Z,0
2023-02-01T22:37:47.926Z,0
2023-02-01T22:42:47.936Z,0
2023-02-01T22:47:47.966Z,0
2023-02-01T22:52:47.916Z,0
2023-02-01T22:57:47.929Z,0
2023-02-01T23:02:47.929Z,0
2023-02-01T23:07:47.936Z,0
2023-02-01T23:12:47.929Z,0
2023-02-01T23:17:47.876Z,0
2023-02-01T23:22:47.896Z,0
2023-02-01T23:27:47.918Z,0
2023-02-01T23:32:47.886Z,0
2023-02-01T23:37:47.881Z,0
2023-02-01T23:42:47.885Z,0
2023-02-01T23:47:47.872Z,0
2023-02-01T23:52:47.866Z,0
2023-02-01T23:57:47.873Z,0
